createdAt,value
2018-06-24T00:01:02.354Z,79.29
2018-06-24T00:04:06.086Z,79.85
2018-06-24T00:07:10.120Z,79.98
2018-06-24T00:10:13.780Z,79.98
2018-06-24T00:13:17.587Z,80.24
2018-06-24T00:16:21.262Z,80.49
2018-06-24T00:19:24.877Z,80.47
2018-06-24T00:22:28.505Z,80.57
2018-06-24T00:25:32.281Z,80.69
2018-06-24T00:28:35.971Z,80.70
2018-06-24T00:31:39.716Z,80.44
2018-06-24T00:34:43.505Z,80.41
2018-06-24T00:37:47.270Z,80.20
2018-06-24T00:40:50.896Z,80.16
2018-06-24T00:43:54.664Z,80.77
2018-06-24T00:46:58.535Z,80.74
2018-06-24T00:50:02.281Z,80.74
2018-06-24T00:53:05.933Z,80.73
2018-06-24T00:56:09.758Z,81.02
2018-06-24T00:59:24.690Z,81.25
2018-06-24T01:02:28.346Z,81.44
2018-06-24T01:05:32.701Z,81.73
2018-06-24T01:08:36.407Z,81.70
2018-06-24T01:11:40.067Z,81.88
2018-06-24T01:14:43.813Z,81.96
2018-06-24T01:17:47.421Z,81.73
2018-06-24T01:20:51.236Z,81.95
2018-06-24T01:23:54.978Z,82.39
2018-06-24T01:26:58.701Z,82.47
2018-06-24T01:30:02.342Z,82.53
2018-06-24T01:33:06.073Z,82.54
2018-06-24T01:36:09.721Z,82.65
2018-06-24T01:39:13.426Z,83.00
2018-06-24T01:42:17.041Z,83.21
2018-06-24T01:45:20.728Z,83.47
2018-06-24T01:48:24.432Z,83.68
2018-06-24T01:51:27.983Z,83.86
2018-06-24T01:54:31.681Z,83.79
2018-06-24T01:57:35.311Z,84.02
2018-06-24T02:00:38.980Z,84.25
2018-06-24T02:03:43.543Z,84.44
2018-06-24T02:06:47.159Z,84.44
2018-06-24T02:09:50.926Z,84.15
2018-06-24T02:12:54.498Z,84.29
2018-06-24T02:15:58.143Z,84.08
2018-06-24T02:19:01.922Z,83.91
2018-06-24T02:22:05.815Z,83.51
2018-06-24T02:25:09.704Z,83.95
2018-06-24T02:28:13.293Z,84.03
2018-06-24T02:31:17.092Z,83.86
2018-06-24T02:34:20.769Z,83.76
2018-06-24T02:37:24.458Z,83.55
2018-06-24T02:40:28.019Z,83.82
2018-06-24T02:43:31.587Z,83.79
2018-06-24T02:46:35.266Z,83.98
2018-06-24T02:49:38.954Z,83.97
2018-06-24T02:52:42.603Z,84.18
2018-06-24T02:55:46.258Z,84.07
2018-06-24T02:58:49.814Z,83.85
2018-06-24T03:01:53.477Z,83.87
2018-06-24T03:04:57.031Z,83.84
2018-06-24T03:08:00.823Z,84.05
2018-06-24T03:11:04.502Z,84.52
2018-06-24T03:14:08.218Z,84.56
2018-06-24T03:17:11.896Z,84.40
2018-06-24T03:20:15.478Z,84.44
2018-06-24T03:23:19.148Z,84.41
2018-06-24T03:26:23.027Z,84.30
2018-06-24T03:29:26.607Z,84.87
2018-06-24T03:32:30.489Z,84.77
2018-06-24T03:35:34.080Z,84.78
2018-06-24T03:38:37.718Z,84.80
2018-06-24T03:41:41.423Z,84.80
2018-06-24T03:44:45.077Z,84.76
2018-06-24T03:47:48.775Z,83.98
2018-06-24T03:50:52.443Z,84.18
2018-06-24T03:53:56.079Z,84.20
2018-06-24T03:56:59.847Z,83.68
2018-06-24T04:00:03.617Z,83.96
2018-06-24T04:03:07.359Z,83.75
2018-06-24T04:06:11.089Z,83.59
2018-06-24T04:09:14.659Z,83.40
2018-06-24T04:12:18.448Z,83.31
2018-06-24T04:15:22.282Z,83.28
2018-06-24T04:18:29.815Z,83.16
2018-06-24T04:21:33.447Z,82.69
2018-06-24T04:24:37.328Z,83.09
2018-06-24T04:27:41.138Z,83.24
2018-06-24T04:30:44.748Z,83.00
2018-06-24T04:33:48.349Z,82.38
2018-06-24T04:36:52.002Z,82.61
2018-06-24T04:39:55.629Z,82.44
2018-06-24T04:42:59.477Z,81.91
2018-06-24T04:46:03.110Z,81.97
2018-06-24T04:49:06.745Z,81.70
2018-06-24T04:52:10.409Z,82.04
2018-06-24T04:55:14.078Z,81.74
2018-06-24T04:58:17.711Z,80.83
2018-06-24T05:01:21.608Z,80.98
2018-06-24T05:04:25.301Z,80.89
2018-06-24T05:07:28.939Z,80.53
2018-06-24T05:10:32.628Z,78.94
2018-06-24T05:13:36.290Z,78.84
2018-06-24T05:16:40.005Z,75.13
2018-06-24T05:19:43.716Z,73.97
2018-06-24T05:22:47.260Z,73.65
2018-06-24T05:25:50.936Z,67.10
2018-06-24T05:28:54.694Z,66.54
2018-06-24T05:31:58.285Z,70.66
2018-06-24T05:35:01.881Z,71.73
2018-06-24T05:38:06.400Z,73.98
2018-06-24T05:41:10.180Z,76.18
2018-06-24T05:44:13.789Z,76.74
2018-06-24T05:47:17.447Z,76.83
2018-06-24T05:50:21.125Z,76.42
2018-06-24T05:53:24.820Z,78.23
2018-06-24T05:56:28.515Z,78.03
2018-06-24T05:59:32.200Z,78.05
2018-06-24T06:02:35.919Z,78.47
2018-06-24T06:05:39.580Z,77.12
2018-06-24T06:08:43.425Z,77.68
2018-06-24T06:11:47.106Z,78.18
2018-06-24T06:14:50.911Z,78.02
2018-06-24T06:17:54.585Z,78.86
2018-06-24T06:20:58.281Z,77.95
2018-06-24T06:24:02.119Z,77.32
2018-06-24T06:27:05.880Z,77.45
2018-06-24T06:30:09.726Z,78.23
2018-06-24T06:33:13.296Z,78.14
2018-06-24T06:36:16.935Z,77.25
2018-06-24T06:39:20.554Z,77.40
2018-06-24T06:42:24.215Z,77.80
2018-06-24T06:45:27.990Z,77.74
2018-06-24T06:48:31.740Z,78.41
2018-06-24T06:51:35.423Z,79.31
2018-06-24T06:54:39.190Z,80.25
2018-06-24T06:57:42.895Z,80.19
2018-06-24T07:00:46.491Z,79.37
2018-06-24T07:03:50.154Z,78.29
2018-06-24T07:06:53.865Z,79.51
2018-06-24T07:09:57.539Z,79.69
2018-06-24T07:13:01.472Z,78.51
2018-06-24T07:16:05.344Z,77.71
2018-06-24T07:19:09.109Z,77.09
2018-06-24T07:22:12.775Z,76.65
2018-06-24T07:25:16.475Z,75.26
2018-06-24T07:28:20.295Z,76.17
2018-06-24T07:31:24.056Z,75.74
2018-06-24T07:34:27.922Z,76.31
2018-06-24T07:37:31.679Z,77.45
2018-06-24T07:40:35.392Z,76.49
2018-06-24T07:43:39.037Z,75.51
2018-06-24T07:46:43.036Z,76.94
2018-06-24T07:49:46.810Z,77.90
2018-06-24T07:52:51.850Z,76.29
2018-06-24T07:55:55.501Z,74.70
2018-06-24T07:58:59.122Z,73.80
2018-06-24T08:02:02.815Z,72.50
2018-06-24T08:05:06.530Z,72.14
2018-06-24T08:08:10.345Z,71.64
2018-06-24T08:11:14.110Z,72.17
2018-06-24T08:14:17.723Z,73.62
2018-06-24T08:17:21.427Z,73.30
2018-06-24T08:20:25.092Z,72.84
2018-06-24T08:23:29.257Z,72.59
2018-06-24T08:26:33.855Z,72.63
2018-06-24T08:29:37.601Z,71.92
2018-06-24T08:32:41.271Z,70.50
2018-06-24T08:35:44.903Z,71.63
2018-06-24T08:38:48.702Z,69.86
2018-06-24T08:41:52.463Z,69.44
2018-06-24T08:44:56.116Z,70.72
2018-06-24T08:48:01.832Z,70.63
2018-06-24T08:51:05.797Z,70.89
2018-06-24T08:54:09.411Z,70.21
2018-06-24T08:57:13.231Z,71.14
2018-06-24T09:00:16.947Z,71.98
2018-06-24T09:03:20.638Z,72.58
2018-06-24T09:06:24.490Z,71.56
2018-06-24T09:09:28.140Z,72.78
2018-06-24T09:12:31.927Z,72.19
2018-06-24T09:15:35.804Z,73.20
2018-06-24T09:18:39.508Z,77.13
2018-06-24T09:21:43.219Z,80.14
2018-06-24T09:24:47.106Z,79.89
2018-06-24T09:27:50.908Z,79.43
2018-06-24T09:30:54.674Z,79.26
2018-06-24T09:33:58.340Z,80.06
2018-06-24T09:37:02.232Z,79.38
2018-06-24T09:40:06.077Z,79.18
2018-06-24T09:43:09.818Z,79.09
2018-06-24T09:46:13.662Z,76.57
2018-06-24T09:49:17.335Z,76.04
2018-06-24T09:52:21.025Z,75.78
2018-06-24T09:55:24.719Z,74.40
2018-06-24T09:58:28.329Z,74.81
2018-06-24T10:01:31.943Z,77.38
2018-06-24T10:04:36.030Z,78.22
2018-06-24T10:07:39.735Z,78.54
2018-06-24T10:10:43.486Z,77.98
2018-06-24T10:13:47.333Z,75.08
2018-06-24T10:16:51.249Z,74.43
2018-06-24T10:19:54.882Z,75.68
2018-06-24T10:22:58.619Z,76.58
2018-06-24T10:26:02.799Z,76.61
2018-06-24T10:29:06.742Z,77.68
2018-06-24T10:32:10.680Z,76.84
2018-06-24T10:35:14.391Z,77.34
2018-06-24T10:38:18.107Z,78.01
2018-06-24T10:41:21.905Z,77.95
2018-06-24T10:44:32.285Z,73.98
2018-06-24T10:47:36.116Z,76.15
2018-06-24T10:50:40.249Z,77.42
2018-06-24T10:53:43.972Z,77.83
2018-06-24T10:56:47.663Z,77.61
2018-06-24T10:59:51.316Z,76.61
2018-06-24T11:02:54.957Z,77.71
2018-06-24T11:05:58.693Z,75.71
2018-06-24T11:09:02.446Z,75.41
2018-06-24T11:12:06.282Z,76.37
2018-06-24T11:15:10.133Z,77.13
2018-06-24T11:18:13.743Z,75.69
2018-06-24T11:21:17.340Z,76.10
2018-06-24T11:24:21.408Z,76.39
2018-06-24T11:27:25.113Z,76.64
2018-06-24T11:30:28.857Z,76.97
2018-06-24T11:33:32.474Z,76.81
2018-06-24T11:36:36.272Z,78.19
2018-06-24T11:39:40.059Z,78.60
2018-06-24T11:42:43.742Z,79.90
2018-06-24T11:45:47.474Z,81.22
2018-06-24T11:48:51.085Z,80.14
2018-06-24T11:51:54.726Z,78.95
2018-06-24T11:54:58.437Z,78.97
2018-06-24T11:58:02.855Z,78.10
2018-06-24T12:01:06.522Z,77.47
2018-06-24T12:04:10.255Z,77.29
2018-06-24T12:07:14.399Z,77.61
2018-06-24T12:10:18.133Z,77.35
2018-06-24T12:13:21.870Z,75.36
2018-06-24T12:16:25.630Z,76.29
2018-06-24T12:19:29.364Z,78.26
2018-06-24T12:22:33.200Z,78.31
2018-06-24T12:25:36.889Z,82.65
2018-06-24T12:28:40.718Z,85.61
2018-06-24T12:31:44.379Z,86.69
2018-06-24T12:34:48.059Z,87.27
2018-06-24T12:37:51.671Z,88.71
2018-06-24T12:40:55.399Z,89.29
2018-06-24T12:43:59.048Z,89.38
2018-06-24T12:47:02.744Z,88.53
2018-06-24T12:50:06.485Z,88.71
2018-06-24T12:53:10.215Z,87.04
2018-06-24T12:56:13.847Z,86.18
2018-06-24T12:59:17.819Z,85.39
2018-06-24T13:02:21.286Z,83.52
2018-06-24T13:05:25.067Z,84.94
2018-06-24T13:08:28.669Z,87.08
2018-06-24T13:11:32.421Z,87.55
2018-06-24T13:14:36.885Z,87.73
2018-06-24T13:17:40.530Z,86.24
2018-06-24T13:20:44.138Z,85.37
2018-06-24T13:23:48.019Z,86.15
2018-06-24T13:26:51.787Z,87.13
2018-06-24T13:29:55.480Z,85.98
2018-06-24T13:32:59.156Z,85.53
2018-06-24T13:36:02.895Z,84.89
2018-06-24T13:39:09.069Z,87.54
2018-06-24T13:42:14.057Z,89.31
2018-06-24T13:45:17.746Z,90.87
2018-06-24T13:48:21.386Z,91.64
2018-06-24T13:51:25.210Z,92.71
2018-06-24T13:54:28.940Z,93.11
2018-06-24T13:57:32.606Z,92.19
2018-06-24T14:00:36.289Z,91.29
2018-06-24T14:03:39.945Z,91.46
2018-06-24T14:06:43.685Z,92.06
2018-06-24T14:09:47.459Z,90.94
2018-06-24T14:12:51.425Z,91.50
2018-06-24T14:15:55.101Z,91.10
2018-06-24T14:18:58.816Z,92.13
2018-06-24T14:22:02.500Z,91.13
2018-06-24T14:25:06.466Z,91.03
2018-06-24T14:28:10.190Z,89.73
2018-06-24T14:31:13.879Z,88.98
2018-06-24T14:34:17.548Z,87.88
2018-06-24T14:37:21.230Z,87.92
2018-06-24T14:40:24.906Z,87.72
2018-06-24T14:43:28.615Z,88.24
2018-06-24T14:46:32.439Z,89.34
2018-06-24T14:49:36.127Z,88.52
2018-06-24T14:52:39.846Z,88.35
2018-06-24T14:55:43.626Z,88.40
2018-06-24T14:58:47.280Z,88.78
2018-06-24T15:01:51.069Z,89.79
2018-06-24T15:04:54.794Z,90.45
2018-06-24T15:07:58.464Z,89.81
2018-06-24T15:11:02.263Z,89.33
2018-06-24T15:14:06.067Z,89.67
2018-06-24T15:17:09.740Z,90.78
2018-06-24T15:20:13.516Z,91.23
2018-06-24T15:23:17.861Z,90.53
2018-06-24T15:26:21.604Z,90.14
2018-06-24T15:29:25.399Z,90.19
2018-06-24T15:32:29.037Z,90.43
2018-06-24T15:35:32.851Z,89.84
2018-06-24T15:38:36.566Z,90.46
2018-06-24T15:41:40.536Z,90.41
2018-06-24T15:44:44.407Z,91.21
2018-06-24T15:47:48.154Z,91.93
2018-06-24T15:50:51.921Z,92.37
2018-06-24T15:53:55.581Z,92.71
2018-06-24T15:56:59.215Z,92.78
2018-06-24T16:00:02.916Z,93.40
2018-06-24T16:03:07.093Z,93.80
2018-06-24T16:06:10.767Z,94.28
2018-06-24T16:09:14.477Z,94.12
2018-06-24T16:12:18.138Z,94.54
2018-06-24T16:15:21.783Z,95.07
2018-06-24T16:18:25.516Z,95.89
2018-06-24T16:21:29.357Z,96.23
2018-06-24T16:24:33.191Z,96.18
2018-06-24T16:27:36.908Z,96.38
2018-06-24T16:30:40.673Z,96.40
2018-06-24T16:33:44.411Z,95.92
2018-06-24T16:36:48.182Z,96.69
2018-06-24T16:39:52.009Z,96.83
2018-06-24T16:42:55.732Z,96.63
2018-06-24T16:45:59.515Z,96.32
2018-06-24T16:49:03.358Z,95.77
2018-06-24T16:52:07.138Z,95.57
2018-06-24T16:55:10.816Z,94.95
2018-06-24T16:58:14.620Z,95.47
2018-06-24T17:01:18.408Z,95.12
2018-06-24T17:04:22.055Z,95.23
2018-06-24T17:07:25.742Z,95.50
2018-06-24T17:10:29.433Z,95.38
2018-06-24T17:13:33.263Z,95.20
2018-06-24T17:16:37.928Z,95.56
2018-06-24T17:19:41.547Z,95.89
2018-06-24T17:22:45.528Z,96.44
2018-06-24T17:25:49.490Z,97.04
2018-06-24T17:28:53.340Z,97.25
2018-06-24T17:31:57.029Z,97.05
2018-06-24T17:35:00.712Z,96.81
2018-06-24T17:38:04.511Z,96.76
2018-06-24T17:41:08.348Z,96.32
2018-06-24T17:44:12.009Z,95.86
2018-06-24T17:47:15.694Z,95.99
2018-06-24T17:50:21.251Z,95.94
2018-06-24T17:53:25.101Z,95.95
2018-06-24T17:56:28.897Z,96.31
2018-06-24T17:59:32.568Z,95.97
2018-06-24T18:02:36.353Z,95.99
2018-06-24T18:05:40.008Z,96.57
2018-06-24T18:08:43.792Z,96.43
2018-06-24T18:11:47.475Z,96.25
2018-06-24T18:14:51.160Z,96.05
2018-06-24T18:17:54.936Z,96.31
2018-06-24T18:20:58.790Z,96.23
2018-06-24T18:24:02.703Z,96.18
2018-06-24T18:27:06.942Z,96.12
2018-06-24T18:30:10.642Z,96.00
2018-06-24T18:33:14.437Z,95.91
2018-06-24T18:36:18.437Z,95.86
2018-06-24T18:39:22.279Z,95.96
2018-06-24T18:42:25.958Z,96.17
2018-06-24T18:45:29.871Z,95.89
2018-06-24T18:48:33.665Z,95.78
2018-06-24T18:51:37.400Z,95.81
2018-06-24T18:54:41.095Z,95.76
2018-06-24T18:57:44.834Z,95.70
2018-06-24T19:00:48.582Z,95.54
2018-06-24T19:03:52.404Z,95.28
2018-06-24T19:06:56.221Z,94.93
2018-06-24T19:10:00.010Z,94.16
2018-06-24T19:13:03.699Z,94.64
2018-06-24T19:16:07.560Z,94.77
2018-06-24T19:19:11.459Z,94.89
2018-06-24T19:22:15.493Z,94.60
2018-06-24T19:25:19.411Z,94.44
2018-06-24T19:28:23.070Z,94.60
2018-06-24T19:31:26.833Z,94.39
2018-06-24T19:34:30.544Z,94.33
2018-06-24T19:37:34.271Z,94.28
2018-06-24T19:40:38.090Z,94.26
2018-06-24T19:43:41.914Z,93.96
2018-06-24T19:46:45.552Z,94.23
2018-06-24T19:49:49.256Z,94.55
2018-06-24T19:52:53.406Z,94.44
2018-06-24T19:55:57.130Z,94.42
2018-06-24T19:59:00.973Z,94.05
2018-06-24T20:02:04.858Z,94.43
2018-06-24T20:05:08.625Z,94.38
2018-06-24T20:08:12.365Z,94.35
2018-06-24T20:11:16.143Z,94.70
2018-06-24T20:14:19.800Z,94.76
2018-06-24T20:17:26.628Z,94.67
2018-06-24T20:20:30.376Z,94.77
2018-06-24T20:23:34.304Z,94.67
2018-06-24T20:26:38.026Z,94.54
2018-06-24T20:29:41.724Z,94.47
2018-06-24T20:32:45.538Z,94.56
2018-06-24T20:35:50.246Z,94.71
2018-06-24T20:38:54.011Z,94.03
2018-06-24T20:41:57.718Z,93.98
2018-06-24T20:45:01.438Z,94.43
2018-06-24T20:48:08.251Z,94.11
2018-06-24T20:51:12.121Z,94.42
2018-06-24T20:54:15.971Z,94.55
2018-06-24T20:57:19.718Z,94.22
2018-06-24T21:00:23.413Z,94.44
2018-06-24T21:03:27.066Z,94.67
2018-06-24T21:06:30.715Z,94.49
2018-06-24T21:09:34.424Z,94.61
2018-06-24T21:12:37.999Z,94.49
2018-06-24T21:15:41.713Z,94.89
2018-06-24T21:18:45.336Z,94.83
2018-06-24T21:21:48.924Z,94.52
2018-06-24T21:24:52.701Z,94.49
2018-06-24T21:27:56.290Z,94.70
2018-06-24T21:31:00.040Z,95.20
2018-06-24T21:34:03.688Z,95.66
2018-06-24T21:37:07.304Z,95.96
2018-06-24T21:40:10.993Z,96.09
2018-06-24T21:43:14.621Z,96.02
2018-06-24T21:46:18.280Z,96.32
2018-06-24T21:49:22.394Z,96.47
2018-06-24T21:52:26.051Z,96.61
2018-06-24T21:55:29.736Z,96.54
2018-06-24T21:58:33.339Z,96.51
2018-06-24T22:01:37.005Z,96.80
2018-06-24T22:04:40.704Z,96.69
2018-06-24T22:07:44.326Z,96.86
2018-06-24T22:10:47.974Z,96.57
2018-06-24T22:13:52.022Z,96.53
2018-06-24T22:16:55.657Z,96.44
2018-06-24T22:19:59.324Z,96.33
2018-06-24T22:23:02.996Z,96.28
2018-06-24T22:26:07.000Z,95.91
2018-06-24T22:29:10.626Z,96.05
2018-06-24T22:32:14.277Z,95.86
2018-06-24T22:35:18.015Z,95.96
2018-06-24T22:38:21.754Z,96.29
2018-06-24T22:41:25.437Z,96.32
2018-06-24T22:44:29.135Z,96.21
2018-06-24T22:47:32.750Z,96.10
2018-06-24T22:50:36.455Z,96.25
2018-06-24T22:53:40.047Z,96.17
2018-06-24T22:56:43.636Z,95.92
2018-06-24T23:00:11.371Z,95.86
2018-06-24T23:03:14.959Z,96.17
2018-06-24T23:06:18.776Z,96.32
2018-06-24T23:09:22.389Z,96.50
2018-06-24T23:12:26.020Z,96.25
2018-06-24T23:15:29.637Z,95.70
2018-06-24T23:18:33.247Z,95.85
2018-06-24T23:21:36.788Z,96.38
2018-06-24T23:24:40.621Z,96.37
2018-06-24T23:27:44.302Z,96.94
2018-06-24T23:30:48.034Z,97.36
2018-06-24T23:33:51.607Z,97.48
2018-06-24T23:36:55.240Z,97.82
2018-06-24T23:39:58.851Z,97.96
2018-06-24T23:43:02.565Z,97.99
2018-06-24T23:46:06.500Z,98.09
2018-06-24T23:49:10.080Z,98.42
2018-06-24T23:52:13.702Z,98.58
2018-06-24T23:55:17.417Z,98.67
2018-06-24T23:58:20.988Z,98.87
